createdAt,value
2019-01-31T00:02:11.180Z,3.3
2019-01-31T00:12:17.075Z,3.5
2019-01-31T00:22:16.888Z,4.9
2019-01-31T00:32:17.521Z,3.2
2019-01-31T00:42:28.090Z,2.5
2019-01-31T00:52:28.278Z,6.6
2019-01-31T01:02:27.840Z,1.7
2019-01-31T01:12:38.885Z,1.7
2019-01-31T01:22:39.175Z,3.4
2019-01-31T01:32:39.442Z,2.9
2019-01-31T01:42:50.222Z,2.9
2019-01-31T01:52:51.420Z,3.1
2019-01-31T02:02:51.374Z,2.6
2019-01-31T02:13:01.548Z,3
2019-01-31T02:23:02.294Z,4.8
2019-01-31T02:33:02.183Z,3.2
2019-01-31T02:43:14.202Z,2.8
2019-01-31T02:53:14.340Z,2.4
2019-01-31T03:03:14.747Z,3.1
2019-01-31T03:13:26.587Z,1.4
2019-01-31T03:23:41.913Z,4.2
2019-01-31T03:33:43.215Z,2.1
2019-01-31T03:43:43.167Z,2.1
2019-01-31T03:53:42.776Z,2.3
2019-01-31T04:03:46.605Z,4.3
2019-01-31T04:13:50.240Z,5.7
2019-01-31T04:23:50.897Z,3.1
2019-01-31T04:33:50.374Z,10.1
2019-01-31T04:44:02.450Z,5.5
2019-01-31T04:54:02.038Z,3.6
2019-01-31T05:04:01.623Z,1.7
2019-01-31T05:14:14.247Z,14.7
2019-01-31T05:24:13.770Z,5.1
2019-01-31T05:34:13.364Z,14.9
2019-01-31T05:44:26.503Z,8.2
2019-01-31T05:54:25.884Z,2.9
2019-01-31T06:04:25.479Z,4.6
2019-01-31T06:14:37.964Z,5.5
2019-01-31T06:24:37.630Z,12
2019-01-31T06:34:40.227Z,2.2
2019-01-31T06:44:49.656Z,3
2019-01-31T06:54:49.030Z,10.5
2019-01-31T07:04:48.572Z,20.4
2019-01-31T07:15:00.712Z,3.9
2019-01-31T07:25:00.404Z,5.8
2019-01-31T07:35:00.063Z,4
2019-01-31T07:45:12.181Z,8.6
2019-01-31T07:55:11.702Z,3
2019-01-31T08:05:11.891Z,2.7
2019-01-31T08:15:23.614Z,2.3
2019-01-31T08:25:23.143Z,2.8
2019-01-31T08:35:25.767Z,4
2019-01-31T08:45:34.939Z,8.4
2019-01-31T08:55:36.742Z,3.5
2019-01-31T09:05:36.260Z,2.5
2019-01-31T09:15:46.265Z,3.5
2019-01-31T09:25:45.984Z,3.1
2019-01-31T09:35:45.410Z,5.1
2019-01-31T09:45:57.140Z,3
2019-01-31T09:55:58.890Z,3.9
2019-01-31T10:05:58.930Z,2.7
2019-01-31T10:16:11.000Z,2
2019-01-31T10:26:13.863Z,6.3
2019-01-31T10:36:13.644Z,4.4
2019-01-31T10:46:22.962Z,5.4
2019-01-31T10:56:22.431Z,6.4
2019-01-31T11:06:21.762Z,5.9
2019-01-31T11:16:31.725Z,3.6
2019-01-31T11:26:43.061Z,3.2
2019-01-31T11:36:42.693Z,2.4
2019-01-31T11:46:42.902Z,3.5
2019-01-31T11:56:42.733Z,3.3
2019-01-31T12:06:42.523Z,1.8
2019-01-31T12:16:54.516Z,2
2019-01-31T12:26:54.214Z,1.4
2019-01-31T12:36:53.972Z,2.5
2019-01-31T12:47:06.281Z,2.5
2019-01-31T12:57:05.662Z,3.2
2019-01-31T13:07:05.335Z,1.5
2019-01-31T13:17:16.991Z,2.5
2019-01-31T13:27:16.495Z,1.5
2019-01-31T13:37:17.681Z,2.3
2019-01-31T13:47:28.689Z,1.7
2019-01-31T13:57:28.329Z,2.3
2019-01-31T14:07:27.896Z,5.1
2019-01-31T14:17:40.344Z,3.9
2019-01-31T14:27:39.925Z,2.1
2019-01-31T14:37:40.088Z,4.8
2019-01-31T14:47:51.902Z,8.6
2019-01-31T14:57:51.216Z,3.5
2019-01-31T15:07:50.974Z,2.2
2019-01-31T15:18:08.726Z,2.1
2019-01-31T15:28:10.074Z,5
2019-01-31T15:38:09.936Z,2.6
2019-01-31T15:48:17.676Z,6.7
2019-01-31T15:58:18.517Z,4.8
2019-01-31T16:08:19.710Z,9.2
2019-01-31T16:18:45.333Z,10.6
2019-01-31T16:28:48.382Z,13.7
2019-01-31T16:38:49.749Z,21.5
2019-01-31T16:48:49.299Z,19.6
2019-01-31T16:58:49.105Z,19.6
2019-01-31T17:08:51.440Z,17.8
2019-01-31T17:18:51.049Z,24.1
2019-01-31T17:28:53.503Z,33
2019-01-31T17:38:53.215Z,12.5
2019-01-31T17:49:01.964Z,9.2
2019-01-31T17:59:05.876Z,7.6
2019-01-31T18:09:16.402Z,18.1
2019-01-31T18:19:15.908Z,18
2019-01-31T18:29:15.535Z,20.3
2019-01-31T18:39:16.402Z,24
2019-01-31T18:49:24.603Z,21.1
2019-01-31T18:59:24.486Z,15.6
2019-01-31T19:09:24.068Z,9.6
2019-01-31T19:19:39.527Z,4.3
2019-01-31T19:29:40.981Z,4.6
2019-01-31T19:39:50.973Z,5.8
2019-01-31T19:49:53.489Z,3.2
2019-01-31T19:59:54.597Z,4.6
2019-01-31T20:09:56.924Z,2.3
2019-01-31T20:20:00.344Z,3.8
2019-01-31T20:30:00.292Z,3.8
2019-01-31T20:40:00.983Z,2.7
2019-01-31T20:50:12.237Z,1.7
2019-01-31T21:00:16.403Z,2.8
2019-01-31T21:10:20.088Z,2.4
2019-01-31T21:20:26.920Z,1.8
2019-01-31T21:30:30.689Z,1.9
2019-01-31T21:40:36.022Z,2.1
2019-01-31T21:50:39.105Z,1.5
2019-01-31T22:00:41.926Z,1.5
2019-01-31T22:11:00.391Z,2.1
2019-01-31T22:21:06.024Z,3.6
2019-01-31T22:31:07.491Z,2.2
2019-01-31T22:41:10.042Z,3.2
2019-01-31T22:51:12.899Z,2.1
2019-01-31T23:01:18.953Z,2.2
2019-01-31T23:11:22.604Z,4
2019-01-31T23:21:26.043Z,6.5
2019-01-31T23:31:28.780Z,2
2019-01-31T23:41:34.066Z,1.9
2019-01-31T23:51:37.541Z,2
